createdAt,value
2023-06-09T00:01:59.888Z,7.88
2023-06-09T00:07:03.623Z,6.03
2023-06-09T00:12:07.892Z,7.30
2023-06-09T00:17:12.255Z,6.07
2023-06-09T00:22:16.470Z,6.57
2023-06-09T00:27:19.342Z,9.25
2023-06-09T00:32:23.481Z,6.15
2023-06-09T00:37:26.271Z,7.50
2023-06-09T00:42:31.295Z,6.15
2023-06-09T00:47:35.451Z,8.23
2023-06-09T00:52:38.479Z,6.95
2023-06-09T00:57:41.431Z,8.05
2023-06-09T01:02:45.906Z,6.32
2023-06-09T01:07:57.560Z,6.15
2023-06-09T01:13:04.145Z,7.47
2023-06-09T01:18:13.880Z,5.38
2023-06-09T01:23:21.906Z,5.80
2023-06-09T01:28:27.899Z,6.43
2023-06-09T01:33:30.716Z,7.00
2023-06-09T01:38:33.743Z,6.22
2023-06-09T01:43:38.019Z,6.65
2023-06-09T01:48:49.455Z,6.13
2023-06-09T01:53:56.370Z,6.40
2023-06-09T01:59:04.416Z,7.95
2023-06-09T02:04:07.585Z,7.07
2023-06-09T02:09:11.544Z,7.65
2023-06-09T02:14:16.410Z,6.70
2023-06-09T02:19:20.068Z,5.70
2023-06-09T02:24:22.960Z,8.02
2023-06-09T02:29:27.458Z,6.40
2023-06-09T02:34:31.540Z,5.45
2023-06-09T02:39:34.531Z,5.63
2023-06-09T02:44:39.138Z,6.57
2023-06-09T02:49:42.318Z,6.07
2023-06-09T02:54:45.298Z,8.18
2023-06-09T02:59:51.361Z,6.97
2023-06-09T03:04:55.278Z,6.55
2023-06-09T03:09:58.160Z,6.85
2023-06-09T03:15:02.642Z,6.90
2023-06-09T03:20:07.323Z,7.82
2023-06-09T03:25:11.338Z,10.13
2023-06-09T03:30:16.716Z,8.02
2023-06-09T03:35:22.728Z,7.15
2023-06-09T03:40:26.352Z,7.97
2023-06-09T03:45:30.570Z,7.53
2023-06-09T03:50:34.771Z,6.72
2023-06-09T03:55:39.530Z,7.78
2023-06-09T04:00:44.781Z,9.18
2023-06-09T04:05:48.541Z,7.30
2023-06-09T04:10:53.084Z,7.18
2023-06-09T04:15:57.293Z,7.30
2023-06-09T04:21:00.540Z,8.07
2023-06-09T04:26:03.665Z,7.93
2023-06-09T04:31:13.610Z,8.02
2023-06-09T04:36:18.477Z,10.55
2023-06-09T04:41:22.950Z,9.20
2023-06-09T04:46:28.293Z,9.27
2023-06-09T04:51:42.657Z,16.15
2023-06-09T04:56:53.260Z,14.18
2023-06-09T05:01:59.887Z,16.17
2023-06-09T05:07:05.156Z,13.98
2023-06-09T05:12:13.476Z,13.20
2023-06-09T05:17:17.777Z,13.20
2023-06-09T05:22:21.203Z,17.45
2023-06-09T05:27:24.333Z,14.80
2023-06-09T05:32:29.194Z,14.32
2023-06-09T05:37:32.733Z,16.42
2023-06-09T05:42:35.677Z,18.50
2023-06-09T05:47:40.013Z,14.90
2023-06-09T05:52:42.842Z,14.60
2023-06-09T05:57:46.150Z,14.55
2023-06-09T06:02:51.260Z,15.48
2023-06-09T06:07:54.400Z,14.07
2023-06-09T06:12:59.271Z,17.05
2023-06-09T06:18:03.636Z,14.85
2023-06-09T06:23:09.072Z,13.45
2023-06-09T06:28:12.251Z,14.27
2023-06-09T06:33:16.693Z,11.02
2023-06-09T06:38:19.676Z,9.50
2023-06-09T06:43:22.710Z,13.07
2023-06-09T06:48:34.845Z,8.82
2023-06-09T06:53:39.108Z,12.20
2023-06-09T06:58:42.319Z,9.77
2023-06-09T07:03:46.621Z,9.20
2023-06-09T07:08:50.209Z,9.02
2023-06-09T07:13:54.742Z,9.35
2023-06-09T07:18:58.988Z,8.77
2023-06-09T07:24:02.013Z,7.47
2023-06-09T07:29:05.275Z,9.18
2023-06-09T07:34:09.886Z,7.22
2023-06-09T07:39:12.801Z,8.75
2023-06-09T07:44:16.087Z,7.70
2023-06-09T07:49:21.653Z,6.90
2023-06-09T07:54:25.698Z,7.15
2023-06-09T07:59:28.629Z,8.18
2023-06-09T08:04:32.901Z,8.43
2023-06-09T08:09:35.842Z,7.15
2023-06-09T08:14:39.872Z,8.75
2023-06-09T08:19:44.310Z,8.60
2023-06-09T08:24:48.087Z,8.23
2023-06-09T08:29:51.275Z,7.80
2023-06-09T08:34:55.873Z,8.82
2023-06-09T08:40:00.333Z,7.68
2023-06-09T08:45:08.298Z,7.45
2023-06-09T08:50:15.316Z,7.60
2023-06-09T08:55:18.282Z,7.45
2023-06-09T09:00:21.460Z,8.25
2023-06-09T09:05:25.600Z,9.10
2023-06-09T09:10:29.306Z,8.90
2023-06-09T09:15:32.271Z,6.95
2023-06-09T09:20:37.513Z,6.88
2023-06-09T09:25:40.475Z,7.88
2023-06-09T09:30:50.520Z,8.63
2023-06-09T09:35:56.350Z,6.80
2023-06-09T09:41:00.676Z,8.32
2023-06-09T09:46:05.850Z,7.72
2023-06-09T09:51:10.818Z,6.38
2023-06-09T09:56:16.117Z,9.18
2023-06-09T10:01:21.164Z,7.35
2023-06-09T10:06:30.133Z,7.15
2023-06-09T10:11:33.642Z,8.05
2023-06-09T10:16:37.176Z,7.78
2023-06-09T10:21:43.012Z,6.90
2023-06-09T10:26:46.251Z,13.65
2023-06-09T10:31:50.032Z,6.22
2023-06-09T10:36:56.392Z,8.13
2023-06-09T10:42:08.289Z,8.82
2023-06-09T10:47:11.303Z,6.00
2023-06-09T10:52:55.075Z,7.50
2023-06-09T10:57:59.068Z,8.15
2023-06-09T11:03:30.265Z,6.47
2023-06-09T11:09:03.019Z,8.68
2023-06-09T11:14:07.244Z,7.15
2023-06-09T11:19:24.809Z,6.78
2023-06-09T11:24:47.417Z,4.68
2023-06-09T11:30:10.825Z,6.20
2023-06-09T11:35:41.641Z,5.25
2023-06-09T11:40:51.332Z,5.28
2023-06-09T11:46:11.011Z,5.30
2023-06-09T11:51:20.581Z,6.68
2023-06-09T11:56:24.200Z,7.35
2023-06-09T12:01:37.726Z,5.18
2023-06-09T12:06:40.819Z,4.82
2023-06-09T12:11:53.714Z,5.30
2023-06-09T12:16:58.610Z,6.10
2023-06-09T12:22:04.073Z,6.07
2023-06-09T12:27:13.954Z,6.32
2023-06-09T12:32:25.262Z,5.35
2023-06-09T12:37:31.408Z,7.13
2023-06-09T12:42:47.462Z,5.88
2023-06-09T12:47:52.392Z,7.15
2023-06-09T12:52:55.413Z,4.60
2023-06-09T12:57:58.788Z,3.63
2023-06-09T13:03:05.616Z,5.80
2023-06-09T13:08:09.169Z,5.82
2023-06-09T13:13:12.229Z,3.15
2023-06-09T13:18:17.196Z,3.92
2023-06-09T13:23:20.062Z,3.10
2023-06-09T13:28:22.909Z,4.95
2023-06-09T13:33:27.249Z,3.50
2023-06-09T13:38:30.392Z,3.72
2023-06-09T13:43:48.983Z,4.45
2023-06-09T13:49:03.446Z,5.47
2023-06-09T13:54:06.572Z,4.45
2023-06-09T13:59:09.361Z,5.45
2023-06-09T14:04:13.733Z,3.63
2023-06-09T14:09:16.808Z,3.40
2023-06-09T14:14:19.642Z,5.82
2023-06-09T14:19:24.151Z,4.25
2023-06-09T14:24:27.011Z,4.32
2023-06-09T14:29:32.823Z,3.75
2023-06-09T14:34:37.010Z,5.15
2023-06-09T14:39:39.806Z,3.83
2023-06-09T14:44:42.584Z,4.80
2023-06-09T14:49:46.760Z,3.33
2023-06-09T14:54:51.096Z,3.50
2023-06-09T14:59:54.880Z,4.82
2023-06-09T15:05:00.501Z,2.75
2023-06-09T15:10:03.567Z,4.78
2023-06-09T15:15:07.279Z,3.67
2023-06-09T15:20:13.867Z,2.90
2023-06-09T15:25:16.717Z,3.03
2023-06-09T15:30:19.472Z,4.63
2023-06-09T15:35:23.668Z,3.60
2023-06-09T15:40:26.495Z,3.83
2023-06-09T15:45:29.233Z,4.50
2023-06-09T15:50:33.349Z,3.40
2023-06-09T15:55:36.338Z,2.90
2023-06-09T16:00:39.193Z,4.18
2023-06-09T16:05:44.104Z,4.13
2023-06-09T16:10:48.406Z,3.42
2023-06-09T16:15:51.790Z,5.30
2023-06-09T16:20:56.085Z,3.42
2023-06-09T16:25:58.846Z,5.82
2023-06-09T16:31:01.838Z,5.20
2023-06-09T16:36:07.663Z,3.65
2023-06-09T16:41:10.563Z,4.45
2023-06-09T16:46:13.447Z,4.47
2023-06-09T16:51:17.852Z,4.10
2023-06-09T16:56:21.032Z,3.72
2023-06-09T17:01:23.959Z,4.28
2023-06-09T17:06:28.194Z,4.45
2023-06-09T17:11:31.012Z,4.10
2023-06-09T17:16:33.946Z,4.47
2023-06-09T17:21:38.435Z,4.18
2023-06-09T17:26:41.237Z,4.13
2023-06-09T17:31:44.280Z,4.47
2023-06-09T17:36:48.522Z,4.50
2023-06-09T17:41:51.536Z,3.97
2023-06-09T17:46:54.385Z,4.30
2023-06-09T17:51:58.749Z,4.53
2023-06-09T17:57:01.808Z,7.88
2023-06-09T18:02:05.066Z,7.30
2023-06-09T18:07:11.360Z,3.72
2023-06-09T18:12:14.279Z,5.18
2023-06-09T18:17:17.583Z,3.47
2023-06-09T18:22:22.297Z,3.90
2023-06-09T18:27:25.581Z,4.82
2023-06-09T18:32:31.893Z,6.10
2023-06-09T18:37:36.378Z,6.68
2023-06-09T18:42:40.537Z,4.78
2023-06-09T18:47:43.855Z,4.63
2023-06-09T18:52:47.986Z,4.40
2023-06-09T18:57:50.823Z,8.50
2023-06-09T19:02:53.760Z,4.50
2023-06-09T19:07:58.212Z,6.75
2023-06-09T19:13:01.522Z,6.15
2023-06-09T19:18:05.675Z,6.57
2023-06-09T19:23:11.038Z,4.50
2023-06-09T19:28:14.052Z,5.35
2023-06-09T19:33:22.152Z,5.40
2023-06-09T19:38:28.638Z,5.95
2023-06-09T19:43:31.387Z,7.10
2023-06-09T19:48:34.353Z,7.28
2023-06-09T19:53:38.671Z,8.30
2023-06-09T19:58:43.140Z,6.25
2023-06-09T20:03:46.001Z,5.80
2023-06-09T20:08:50.302Z,6.38
2023-06-09T20:13:53.814Z,11.25
2023-06-09T20:18:56.612Z,6.80
2023-06-09T20:24:00.802Z,5.93
2023-06-09T20:29:03.771Z,5.88
2023-06-09T20:34:06.792Z,6.28
2023-06-09T20:39:11.988Z,8.02
2023-06-09T20:44:14.903Z,5.68
2023-06-09T20:49:17.805Z,5.28
2023-06-09T20:54:22.627Z,4.60
2023-06-09T20:59:25.620Z,6.15
2023-06-09T21:04:30.334Z,7.75
2023-06-09T21:09:34.730Z,4.55
2023-06-09T21:14:37.485Z,9.73
2023-06-09T21:19:42.841Z,6.70
2023-06-09T21:24:47.008Z,5.00
2023-06-09T21:29:49.938Z,5.28
2023-06-09T21:34:52.720Z,5.43
2023-06-09T21:39:56.894Z,4.00
2023-06-09T21:44:59.729Z,7.40
2023-06-09T21:50:02.733Z,4.30
2023-06-09T21:55:08.751Z,4.60
2023-06-09T22:00:15.088Z,4.65
2023-06-09T22:05:18.030Z,4.72
2023-06-09T22:10:22.423Z,4.72
2023-06-09T22:15:27.204Z,4.18
2023-06-09T22:20:31.187Z,4.55
2023-06-09T22:25:35.331Z,4.68
2023-06-09T22:30:38.184Z,4.50
2023-06-09T22:35:41.251Z,6.32
2023-06-09T22:40:46.178Z,12.25
2023-06-09T22:45:48.949Z,7.03
2023-06-09T22:50:52.338Z,4.97
2023-06-09T22:55:56.664Z,7.25
2023-06-09T23:00:59.411Z,5.57
2023-06-09T23:06:04.200Z,4.93
2023-06-09T23:11:08.643Z,4.72
2023-06-09T23:16:11.565Z,8.30
2023-06-09T23:21:14.592Z,7.13
2023-06-09T23:26:18.867Z,3.80
2023-06-09T23:31:22.978Z,4.35
2023-06-09T23:36:28.968Z,5.63
2023-06-09T23:41:33.367Z,6.43
2023-06-09T23:46:36.252Z,10.05
2023-06-09T23:51:39.097Z,8.35
2023-06-09T23:56:45.361Z,7.57
